createdAt,value
2023-05-14T00:00:16.848Z,10.98
2023-05-14T00:05:09.978Z,11.00
2023-05-14T00:10:02.161Z,11.00
2023-05-14T00:14:54.073Z,11.02
2023-05-14T00:19:45.990Z,11.15
2023-05-14T00:24:37.669Z,11.23
2023-05-14T00:29:29.684Z,11.32
2023-05-14T00:34:21.435Z,11.41
2023-05-14T00:39:14.340Z,11.49
2023-05-14T00:44:06.095Z,11.58
2023-05-14T00:48:59.356Z,11.65
2023-05-14T00:53:52.352Z,11.73
2023-05-14T00:58:44.126Z,11.78
2023-05-14T01:03:36.537Z,11.85
2023-05-14T01:08:39.039Z,11.91
2023-05-14T01:14:01.095Z,11.94
2023-05-14T01:18:54.439Z,12.00
2023-05-14T01:23:46.226Z,12.03
2023-05-14T01:28:38.623Z,12.02
2023-05-14T01:33:33.920Z,12.08
2023-05-14T01:38:30.217Z,12.21
2023-05-14T01:43:23.175Z,12.25
2023-05-14T01:48:15.341Z,12.20
2023-05-14T01:53:07.149Z,12.19
2023-05-14T01:57:59.000Z,12.13
2023-05-14T02:02:50.748Z,12.10
2023-05-14T02:07:42.470Z,12.09
2023-05-14T02:12:34.166Z,12.12
2023-05-14T02:17:26.525Z,12.07
2023-05-14T02:22:18.358Z,12.06
2023-05-14T02:27:12.584Z,12.02
2023-05-14T02:32:04.845Z,11.94
2023-05-14T02:36:56.618Z,11.83
2023-05-14T02:41:48.303Z,11.92
2023-05-14T02:46:40.098Z,11.87
2023-05-14T02:51:31.844Z,11.75
2023-05-14T02:56:23.531Z,11.74
2023-05-14T03:01:15.298Z,11.71
2023-05-14T03:06:07.596Z,11.73
2023-05-14T03:10:59.352Z,11.72
2023-05-14T03:15:54.581Z,11.78
2023-05-14T03:20:46.373Z,11.80
2023-05-14T03:25:38.073Z,11.77
2023-05-14T03:30:29.926Z,11.75
2023-05-14T03:35:21.733Z,11.80
2023-05-14T03:40:13.541Z,11.79
2023-05-14T03:45:06.289Z,11.80
2023-05-14T03:49:58.718Z,11.82
2023-05-14T03:54:50.480Z,11.87
2023-05-14T03:59:42.155Z,11.95
2023-05-14T04:04:33.984Z,11.97
2023-05-14T04:09:25.742Z,11.90
2023-05-14T04:14:17.448Z,11.85
2023-05-14T04:19:09.159Z,11.83
2023-05-14T04:24:00.917Z,11.90
2023-05-14T04:28:52.787Z,11.82
2023-05-14T04:33:44.488Z,11.92
2023-05-14T04:38:36.192Z,11.91
2023-05-14T04:43:27.877Z,11.83
2023-05-14T04:48:19.583Z,11.78
2023-05-14T04:53:11.534Z,11.77
2023-05-14T04:58:03.667Z,11.79
2023-05-14T05:02:55.642Z,11.81
2023-05-14T05:07:47.693Z,11.86
2023-05-14T05:12:39.456Z,11.91
2023-05-14T05:17:31.485Z,11.98
2023-05-14T05:22:24.226Z,12.05
2023-05-14T05:27:15.956Z,12.09
2023-05-14T05:32:08.103Z,12.20
2023-05-14T05:36:59.774Z,12.35
2023-05-14T05:41:51.517Z,12.39
2023-05-14T05:46:43.278Z,12.35
2023-05-14T05:51:34.987Z,12.39
2023-05-14T05:56:26.745Z,12.55
2023-05-14T06:01:18.520Z,12.70
2023-05-14T06:06:10.185Z,12.92
2023-05-14T06:11:01.881Z,13.02
2023-05-14T06:15:53.593Z,12.99
2023-05-14T06:20:45.272Z,12.95
2023-05-14T06:25:36.944Z,12.99
2023-05-14T06:30:28.678Z,12.99
2023-05-14T06:35:20.480Z,12.81
2023-05-14T06:40:15.690Z,12.82
2023-05-14T06:45:07.991Z,12.78
2023-05-14T06:50:01.764Z,12.67
2023-05-14T06:54:53.443Z,12.64
2023-05-14T06:59:45.138Z,12.62
2023-05-14T07:04:36.842Z,12.63
2023-05-14T07:09:28.695Z,12.77
2023-05-14T07:14:20.529Z,12.85
2023-05-14T07:19:12.618Z,13.00
2023-05-14T07:24:05.264Z,13.07
2023-05-14T07:28:57.061Z,13.04
2023-05-14T07:33:48.799Z,13.09
2023-05-14T07:38:40.577Z,13.27
2023-05-14T07:43:32.266Z,13.32
2023-05-14T07:48:23.987Z,13.58
2023-05-14T07:53:15.739Z,14.00
2023-05-14T07:58:07.657Z,14.42
2023-05-14T08:02:59.476Z,14.41
2023-05-14T08:07:51.382Z,14.58
2023-05-14T08:12:43.057Z,14.43
2023-05-14T08:17:34.871Z,14.78
2023-05-14T08:22:26.616Z,14.97
2023-05-14T08:27:18.274Z,14.82
2023-05-14T08:32:22.114Z,14.93
2023-05-14T08:37:14.820Z,14.61
2023-05-14T08:42:07.990Z,14.19
2023-05-14T08:47:00.775Z,14.18
2023-05-14T08:51:53.002Z,14.63
2023-05-14T08:56:50.510Z,14.81
2023-05-14T09:01:48.460Z,14.43
2023-05-14T09:06:43.328Z,14.38
2023-05-14T09:11:41.048Z,14.49
2023-05-14T09:16:32.997Z,14.45
2023-05-14T09:21:24.852Z,14.38
2023-05-14T09:26:18.549Z,14.37
2023-05-14T09:31:10.302Z,14.60
2023-05-14T09:36:02.582Z,14.85
2023-05-14T09:40:54.242Z,15.24
2023-05-14T09:45:45.991Z,15.63
2023-05-14T09:50:46.484Z,15.84
2023-05-14T09:55:39.105Z,16.31
2023-05-14T10:00:35.498Z,16.52
2023-05-14T10:05:28.765Z,16.52
2023-05-14T10:10:26.877Z,16.68
2023-05-14T10:15:30.020Z,16.61
2023-05-14T10:20:24.983Z,16.85
2023-05-14T10:25:17.403Z,17.04
2023-05-14T10:30:12.883Z,17.12
2023-05-14T10:35:22.731Z,16.90
2023-05-14T10:40:14.768Z,16.88
2023-05-14T10:45:15.192Z,16.03
2023-05-14T10:50:11.215Z,16.48
2023-05-14T10:55:09.057Z,16.91
2023-05-14T11:00:02.477Z,16.69
2023-05-14T11:05:00.549Z,16.74
2023-05-14T11:09:53.675Z,15.80
2023-05-14T11:14:46.951Z,16.11
2023-05-14T11:19:38.613Z,16.17
2023-05-14T11:24:30.459Z,16.39
2023-05-14T11:29:22.216Z,16.38
2023-05-14T11:34:14.183Z,16.41
2023-05-14T11:39:05.879Z,16.55
2023-05-14T11:43:58.661Z,16.59
2023-05-14T11:48:50.910Z,16.84
2023-05-14T11:53:42.591Z,16.79
2023-05-14T11:58:34.296Z,16.32
2023-05-14T12:03:29.228Z,16.37
2023-05-14T12:08:31.189Z,16.48
2023-05-14T12:13:27.542Z,15.94
2023-05-14T12:18:24.547Z,15.76
2023-05-14T12:23:17.196Z,16.29
2023-05-14T12:28:19.765Z,16.42
2023-05-14T12:33:11.578Z,16.48
2023-05-14T12:38:04.134Z,16.51
2023-05-14T12:42:56.790Z,17.24
2023-05-14T12:47:48.785Z,17.31
2023-05-14T12:52:40.752Z,17.14
2023-05-14T12:57:32.468Z,16.40
2023-05-14T13:02:24.239Z,16.88
2023-05-14T13:07:15.924Z,16.72
2023-05-14T13:12:08.088Z,17.13
2023-05-14T13:16:59.845Z,17.35
2023-05-14T13:21:51.652Z,17.21
2023-05-14T13:26:44.823Z,17.11
2023-05-14T13:31:36.877Z,16.77
2023-05-14T13:36:28.754Z,16.57
2023-05-14T13:41:21.567Z,16.45
2023-05-14T13:46:13.293Z,16.27
2023-05-14T13:51:05.007Z,16.28
2023-05-14T13:55:58.252Z,16.60
2023-05-14T14:00:50.306Z,16.86
2023-05-14T14:05:42.075Z,16.80
2023-05-14T14:10:33.825Z,16.97
2023-05-14T14:15:25.741Z,16.68
2023-05-14T14:20:17.725Z,16.54
2023-05-14T14:25:10.884Z,16.48
2023-05-14T14:30:02.811Z,17.08
2023-05-14T14:34:54.646Z,17.05
2023-05-14T14:39:46.346Z,17.61
2023-05-14T14:44:38.023Z,16.93
2023-05-14T14:49:30.670Z,17.00
2023-05-14T14:54:22.332Z,17.26
2023-05-14T14:59:14.002Z,17.55
2023-05-14T15:04:05.871Z,17.15
2023-05-14T15:08:57.551Z,17.48
2023-05-14T15:13:49.236Z,17.78
2023-05-14T15:18:40.946Z,17.82
2023-05-14T15:23:32.664Z,18.04
2023-05-14T15:28:24.335Z,18.14
2023-05-14T15:33:19.354Z,17.96
2023-05-14T15:38:11.443Z,17.55
2023-05-14T15:43:03.425Z,17.74
2023-05-14T15:47:55.235Z,17.93
2023-05-14T15:52:47.936Z,18.01
2023-05-14T15:57:39.666Z,17.93
2023-05-14T16:02:33.143Z,17.64
2023-05-14T16:07:25.076Z,17.52
2023-05-14T16:12:16.786Z,15.95
2023-05-14T16:17:08.983Z,13.98
2023-05-14T16:22:00.663Z,13.49
2023-05-14T16:26:52.366Z,13.67
2023-05-14T16:31:44.173Z,13.86
2023-05-14T16:36:35.945Z,13.78
2023-05-14T16:41:28.344Z,13.78
2023-05-14T16:46:20.234Z,13.70
2023-05-14T16:51:12.002Z,13.57
2023-05-14T16:56:04.010Z,13.55
2023-05-14T17:00:55.757Z,13.57
2023-05-14T17:05:47.559Z,13.45
2023-05-14T17:10:39.218Z,13.42
2023-05-14T17:15:30.950Z,13.35
2023-05-14T17:20:22.727Z,13.32
2023-05-14T17:25:14.451Z,13.45
2023-05-14T17:30:07.100Z,13.48
2023-05-14T17:34:58.862Z,13.34
2023-05-14T17:39:50.935Z,13.29
2023-05-14T17:44:42.706Z,13.26
2023-05-14T17:49:35.027Z,13.31
2023-05-14T17:54:26.719Z,13.22
2023-05-14T17:59:18.497Z,13.12
2023-05-14T18:04:10.357Z,13.03
2023-05-14T18:09:02.144Z,12.94
2023-05-14T18:13:53.804Z,12.79
2023-05-14T18:18:45.548Z,12.70
2023-05-14T18:23:37.217Z,12.66
2023-05-14T18:28:28.903Z,12.59
2023-05-14T18:33:20.658Z,12.54
2023-05-14T18:38:13.550Z,12.51
2023-05-14T18:43:05.364Z,12.54
2023-05-14T18:47:57.237Z,12.47
2023-05-14T18:52:49.007Z,12.59
2023-05-14T18:57:40.698Z,12.59
2023-05-14T19:02:32.453Z,12.58
2023-05-14T19:07:24.313Z,12.45
2023-05-14T19:12:16.405Z,12.39
2023-05-14T19:17:08.289Z,12.33
2023-05-14T19:22:00.045Z,12.22
2023-05-14T19:26:51.786Z,12.21
2023-05-14T19:31:43.502Z,12.19
2023-05-14T19:36:35.429Z,12.26
2023-05-14T19:41:27.627Z,12.32
2023-05-14T19:46:19.451Z,12.29
2023-05-14T19:51:11.525Z,12.24
2023-05-14T19:56:03.416Z,12.25
2023-05-14T20:00:57.104Z,12.10
2023-05-14T20:05:49.339Z,12.11
2023-05-14T20:10:41.431Z,12.12
2023-05-14T20:15:33.480Z,12.04
2023-05-14T20:20:25.518Z,11.96
2023-05-14T20:25:17.415Z,12.08
2023-05-14T20:30:09.533Z,11.98
2023-05-14T20:35:02.270Z,12.02
2023-05-14T20:39:54.125Z,12.03
2023-05-14T20:44:48.157Z,12.07
2023-05-14T20:49:39.845Z,12.05
2023-05-14T20:54:31.794Z,12.00
2023-05-14T20:59:23.477Z,12.11
2023-05-14T21:04:15.481Z,12.11
2023-05-14T21:09:07.422Z,11.95
2023-05-14T21:13:59.104Z,11.88
2023-05-14T21:18:50.805Z,11.81
2023-05-14T21:23:42.526Z,11.74
2023-05-14T21:28:34.222Z,11.66
2023-05-14T21:33:25.936Z,11.78
2023-05-14T21:38:17.766Z,11.82
2023-05-14T21:43:10.511Z,11.84
2023-05-14T21:48:02.363Z,11.73
2023-05-14T21:52:54.077Z,11.63
2023-05-14T21:57:45.915Z,11.60
2023-05-14T22:02:37.648Z,11.60
2023-05-14T22:07:29.478Z,11.57
2023-05-14T22:12:21.162Z,11.56
2023-05-14T22:17:12.859Z,11.51
2023-05-14T22:22:04.670Z,11.57
2023-05-14T22:26:56.401Z,11.58
2023-05-14T22:31:48.348Z,11.60
2023-05-14T22:36:40.125Z,11.63
2023-05-14T22:41:31.817Z,11.63
2023-05-14T22:46:23.608Z,11.68
2023-05-14T22:51:16.228Z,11.69
2023-05-14T22:56:07.986Z,11.72
2023-05-14T23:00:59.687Z,11.68
2023-05-14T23:05:51.975Z,11.69
2023-05-14T23:10:43.675Z,11.78
2023-05-14T23:15:35.394Z,11.80
2023-05-14T23:20:27.111Z,11.88
2023-05-14T23:25:18.812Z,11.89
2023-05-14T23:30:11.231Z,11.80
2023-05-14T23:35:03.232Z,11.78
2023-05-14T23:39:55.091Z,11.74
2023-05-14T23:44:46.845Z,11.69
2023-05-14T23:49:40.634Z,11.71
2023-05-14T23:54:32.359Z,11.58
2023-05-14T23:59:24.040Z,11.51
